createdAt,value
2022-11-20T00:00:17.009Z,25.80
2022-11-20T00:02:43.550Z,24.83
2022-11-20T00:05:10.076Z,23.50
2022-11-20T00:07:36.721Z,25.35
2022-11-20T00:10:03.775Z,24.30
2022-11-20T00:12:30.267Z,26.70
2022-11-20T00:14:56.771Z,24.27
2022-11-20T00:17:23.962Z,24.55
2022-11-20T00:19:50.491Z,24.20
2022-11-20T00:22:17.032Z,23.98
2022-11-20T00:24:43.615Z,25.83
2022-11-20T00:27:10.137Z,25.23
2022-11-20T00:29:36.668Z,23.92
2022-11-20T00:32:03.311Z,25.77
2022-11-20T00:34:29.855Z,23.55
2022-11-20T00:36:56.534Z,23.20
2022-11-20T00:39:23.462Z,25.13
2022-11-20T00:41:50.184Z,24.48
2022-11-20T00:44:16.675Z,23.60
2022-11-20T00:46:43.236Z,22.83
2022-11-20T00:49:09.756Z,21.63
2022-11-20T00:51:36.861Z,25.00
2022-11-20T00:54:03.605Z,28.85
2022-11-20T00:56:30.204Z,26.48
2022-11-20T00:59:00.598Z,23.15
2022-11-20T01:01:30.324Z,24.43
2022-11-20T01:03:59.434Z,28.35
2022-11-20T01:06:28.160Z,27.48
2022-11-20T01:08:58.074Z,25.58
2022-11-20T01:11:29.841Z,24.38
2022-11-20T01:13:58.157Z,26.03
2022-11-20T01:16:32.916Z,24.98
2022-11-20T01:19:02.381Z,24.88
2022-11-20T01:21:34.244Z,25.00
2022-11-20T01:24:01.754Z,23.27
2022-11-20T01:26:31.523Z,24.17
2022-11-20T01:28:58.789Z,22.50
2022-11-20T01:31:29.185Z,22.95
2022-11-20T01:33:58.747Z,26.75
2022-11-20T01:36:28.588Z,25.45
2022-11-20T01:38:57.649Z,27.67
2022-11-20T01:41:44.489Z,25.52
2022-11-20T01:44:13.760Z,23.10
2022-11-20T01:46:43.401Z,24.13
2022-11-20T01:49:23.826Z,23.50
2022-11-20T01:52:22.382Z,21.77
2022-11-20T01:55:00.641Z,21.67
2022-11-20T01:57:30.742Z,24.67
2022-11-20T02:00:05.426Z,22.00
2022-11-20T02:02:32.790Z,27.00
2022-11-20T02:05:05.662Z,23.13
2022-11-20T02:07:32.585Z,24.10
2022-11-20T02:09:59.557Z,23.00
2022-11-20T02:12:45.189Z,24.52
2022-11-20T02:15:11.866Z,24.77
2022-11-20T02:17:38.770Z,24.77
2022-11-20T02:20:06.644Z,24.85
2022-11-20T02:22:40.801Z,24.85
2022-11-20T02:25:09.429Z,25.35
2022-11-20T02:27:36.096Z,25.08
2022-11-20T02:30:05.690Z,26.60
2022-11-20T02:32:35.265Z,24.75
2022-11-20T02:35:28.228Z,28.85
2022-11-20T02:37:57.265Z,27.10
2022-11-20T02:40:24.124Z,25.70
2022-11-20T02:42:57.482Z,26.63
2022-11-20T02:45:25.361Z,28.70
2022-11-20T02:47:52.630Z,26.73
2022-11-20T02:50:19.480Z,26.85
2022-11-20T02:52:46.357Z,25.48
2022-11-20T02:55:12.884Z,28.10
2022-11-20T02:57:39.493Z,24.90
2022-11-20T03:00:07.782Z,24.08
2022-11-20T03:02:35.204Z,28.77
2022-11-20T03:05:02.000Z,27.35
2022-11-20T03:07:28.630Z,27.87
2022-11-20T03:09:55.241Z,23.92
2022-11-20T03:12:21.808Z,26.75
2022-11-20T03:14:52.780Z,27.45
2022-11-20T03:17:20.054Z,25.65
2022-11-20T03:19:46.744Z,26.07
2022-11-20T03:22:13.318Z,25.17
2022-11-20T03:24:39.815Z,25.67
2022-11-20T03:27:06.384Z,29.17
2022-11-20T03:29:33.389Z,29.15
2022-11-20T03:31:59.966Z,27.10
2022-11-20T03:34:26.504Z,25.38
2022-11-20T03:36:53.033Z,31.35
2022-11-20T03:39:19.928Z,26.58
2022-11-20T03:41:46.694Z,30.08
2022-11-20T03:44:13.429Z,28.70
2022-11-20T03:46:40.164Z,28.95
2022-11-20T03:49:06.984Z,28.50
2022-11-20T03:51:36.167Z,27.10
2022-11-20T03:54:07.496Z,28.42
2022-11-20T03:56:36.797Z,30.77
2022-11-20T03:59:04.540Z,28.90
2022-11-20T04:01:33.544Z,26.45
2022-11-20T04:04:00.277Z,28.52
2022-11-20T04:06:29.234Z,31.40
2022-11-20T04:08:57.034Z,28.13
2022-11-20T04:11:25.573Z,25.95
2022-11-20T04:13:55.023Z,27.60
2022-11-20T04:16:22.961Z,28.70
2022-11-20T04:18:54.094Z,28.88
2022-11-20T04:21:20.860Z,29.07
2022-11-20T04:23:47.447Z,26.38
2022-11-20T04:26:13.990Z,30.70
2022-11-20T04:28:40.593Z,28.90
2022-11-20T04:31:09.212Z,27.27
2022-11-20T04:33:36.817Z,26.80
2022-11-20T04:36:10.778Z,27.58
2022-11-20T04:38:37.530Z,27.85
2022-11-20T04:41:06.572Z,28.75
2022-11-20T04:43:34.404Z,29.27
2022-11-20T04:46:02.003Z,27.53
2022-11-20T04:48:30.052Z,30.02
2022-11-20T04:50:57.435Z,30.48
2022-11-20T04:53:25.052Z,30.10
2022-11-20T04:55:51.613Z,29.67
2022-11-20T04:58:18.244Z,28.70
2022-11-20T05:00:44.835Z,29.75
2022-11-20T05:03:11.490Z,27.75
2022-11-20T05:05:38.008Z,29.33
2022-11-20T05:08:04.795Z,29.50
2022-11-20T05:10:31.322Z,30.87
2022-11-20T05:12:58.335Z,34.88
2022-11-20T05:15:25.271Z,30.77
2022-11-20T05:17:53.279Z,33.20
2022-11-20T05:20:20.166Z,34.47
2022-11-20T05:22:47.172Z,38.70
2022-11-20T05:25:13.810Z,33.83
2022-11-20T05:27:40.437Z,37.97
2022-11-20T05:30:07.543Z,34.10
2022-11-20T05:32:34.090Z,35.95
2022-11-20T05:35:00.620Z,34.67
2022-11-20T05:37:27.160Z,35.90
2022-11-20T05:39:54.164Z,39.25
2022-11-20T05:42:32.763Z,32.35
2022-11-20T05:45:00.711Z,34.42
2022-11-20T05:47:28.895Z,31.83
2022-11-20T05:49:55.567Z,33.15
2022-11-20T05:52:22.276Z,31.98
2022-11-20T05:54:49.013Z,35.30
2022-11-20T05:57:15.643Z,33.97
2022-11-20T05:59:42.427Z,33.70
2022-11-20T06:02:08.951Z,32.25
2022-11-20T06:04:35.523Z,29.60
2022-11-20T06:07:02.055Z,31.95
2022-11-20T06:09:28.644Z,34.25
2022-11-20T06:11:55.260Z,32.70
2022-11-20T06:14:21.802Z,32.17
2022-11-20T06:16:48.343Z,30.83
2022-11-20T06:19:15.939Z,34.30
2022-11-20T06:21:42.567Z,33.00
2022-11-20T06:24:11.425Z,32.17
2022-11-20T06:26:38.073Z,30.70
2022-11-20T06:29:04.593Z,31.20
2022-11-20T06:31:33.744Z,35.85
2022-11-20T06:34:02.243Z,33.83
2022-11-20T06:36:28.837Z,33.37
2022-11-20T06:38:55.380Z,36.15
2022-11-20T06:41:23.189Z,33.50
2022-11-20T06:43:50.178Z,34.13
2022-11-20T06:46:20.355Z,32.30
2022-11-20T06:48:50.906Z,32.77
2022-11-20T06:51:18.013Z,33.22
2022-11-20T06:53:44.547Z,36.17
2022-11-20T06:56:11.137Z,36.17
2022-11-20T06:58:38.205Z,34.10
2022-11-20T07:01:13.478Z,35.17
2022-11-20T07:03:41.249Z,34.75
2022-11-20T07:06:09.195Z,35.28
2022-11-20T07:08:36.119Z,33.47
2022-11-20T07:11:05.928Z,34.95
2022-11-20T07:13:32.856Z,33.10
2022-11-20T07:16:04.334Z,33.20
2022-11-20T07:18:31.150Z,32.97
2022-11-20T07:21:01.974Z,34.25
2022-11-20T07:23:28.669Z,32.33
2022-11-20T07:25:55.198Z,34.43
2022-11-20T07:28:21.739Z,33.40
2022-11-20T07:30:52.663Z,30.52
2022-11-20T07:33:19.388Z,31.38
2022-11-20T07:35:46.186Z,31.85
2022-11-20T07:38:12.798Z,31.07
2022-11-20T07:40:39.465Z,29.75
2022-11-20T07:43:06.032Z,32.35
2022-11-20T07:45:32.779Z,29.00
2022-11-20T07:47:59.303Z,29.15
2022-11-20T07:50:25.978Z,27.63
2022-11-20T07:52:53.473Z,26.63
2022-11-20T07:55:19.982Z,32.83
2022-11-20T07:57:46.486Z,31.27
2022-11-20T08:00:33.390Z,33.83
2022-11-20T08:03:01.033Z,33.03
2022-11-20T08:05:28.755Z,32.53
2022-11-20T08:07:57.626Z,32.58
2022-11-20T08:10:25.531Z,30.50
2022-11-20T08:13:12.617Z,31.25
2022-11-20T08:15:41.609Z,27.63
2022-11-20T08:21:05.087Z,36.10
2022-11-20T08:23:32.186Z,29.75
2022-11-20T08:25:58.710Z,29.52
2022-11-20T08:28:25.206Z,30.90
2022-11-20T08:30:52.058Z,30.98
2022-11-20T08:33:19.145Z,31.40
2022-11-20T08:35:45.786Z,28.10
2022-11-20T08:38:12.504Z,31.30
2022-11-20T08:40:39.051Z,30.23
2022-11-20T08:43:06.098Z,31.10
2022-11-20T08:45:34.918Z,30.42
2022-11-20T08:48:04.682Z,31.92
2022-11-20T08:50:33.467Z,32.55
2022-11-20T08:53:06.603Z,30.80
2022-11-20T08:55:36.392Z,30.33
2022-11-20T08:58:06.842Z,30.13
2022-11-20T09:00:34.644Z,30.67
2022-11-20T09:03:02.297Z,31.35
2022-11-20T09:05:29.092Z,30.37
2022-11-20T09:07:59.366Z,30.15
2022-11-20T09:10:29.858Z,31.00
2022-11-20T09:12:57.149Z,29.55
2022-11-20T09:15:25.136Z,31.63
2022-11-20T09:17:56.487Z,29.90
2022-11-20T09:20:23.486Z,30.08
2022-11-20T09:22:50.300Z,31.55
2022-11-20T09:25:17.295Z,30.65
2022-11-20T09:27:45.149Z,32.15
2022-11-20T09:30:12.812Z,30.57
2022-11-20T09:32:43.934Z,32.67
2022-11-20T09:35:11.669Z,31.42
2022-11-20T09:37:38.830Z,30.38
2022-11-20T09:40:06.119Z,33.10
2022-11-20T09:42:38.646Z,31.57
2022-11-20T09:45:20.301Z,31.77
2022-11-20T09:48:05.421Z,34.08
2022-11-20T09:50:42.653Z,33.63
2022-11-20T09:53:41.942Z,36.95
2022-11-20T09:56:10.506Z,36.63
2022-11-20T09:59:02.619Z,35.42
2022-11-20T10:01:37.027Z,36.55
2022-11-20T10:04:22.264Z,38.65
2022-11-20T10:10:01.410Z,36.37
2022-11-20T10:12:30.914Z,37.60
2022-11-20T10:15:21.305Z,36.08
2022-11-20T10:18:00.602Z,36.30
2022-11-20T10:20:47.516Z,37.78
2022-11-20T10:23:51.072Z,38.43
2022-11-20T10:26:41.087Z,38.20
2022-11-20T10:29:18.013Z,37.65
2022-11-20T10:31:48.815Z,37.45
2022-11-20T10:34:35.018Z,37.70
2022-11-20T10:37:10.660Z,42.87
2022-11-20T10:39:41.459Z,41.13
2022-11-20T10:42:18.472Z,44.63
2022-11-20T10:45:06.101Z,40.15
2022-11-20T10:47:33.806Z,44.03
2022-11-20T10:50:06.926Z,42.77
2022-11-20T10:52:48.487Z,46.85
2022-11-20T10:55:41.856Z,44.42
2022-11-20T10:58:15.625Z,40.60
2022-11-20T11:00:43.248Z,46.95
2022-11-20T11:03:28.440Z,49.63
2022-11-20T11:06:09.111Z,45.00
2022-11-20T11:08:39.841Z,44.92
2022-11-20T11:11:24.970Z,52.75
2022-11-20T11:13:51.834Z,44.55
2022-11-20T11:16:26.630Z,48.17
2022-11-20T11:19:05.206Z,50.88
2022-11-20T11:21:31.886Z,53.33
2022-11-20T11:24:26.841Z,51.53
2022-11-20T11:27:00.671Z,46.97
2022-11-20T11:29:30.380Z,46.60
2022-11-20T11:32:12.458Z,51.40
2022-11-20T11:34:39.075Z,50.50
2022-11-20T11:37:11.312Z,49.05
2022-11-20T11:39:42.391Z,48.65
2022-11-20T11:42:15.698Z,52.50
2022-11-20T11:45:05.195Z,48.05
2022-11-20T11:47:34.516Z,47.70
2022-11-20T11:50:10.157Z,52.47
2022-11-20T11:52:56.114Z,44.53
2022-11-20T11:55:28.489Z,48.80
2022-11-20T11:57:58.106Z,55.00
2022-11-20T12:00:24.636Z,48.33
2022-11-20T12:03:14.610Z,46.88
2022-11-20T12:06:09.730Z,52.97
2022-11-20T12:08:47.814Z,50.93
2022-11-20T12:11:24.273Z,50.78
2022-11-20T12:13:59.365Z,52.10
2022-11-20T12:16:26.134Z,53.25
2022-11-20T12:18:53.810Z,53.08
2022-11-20T12:21:29.359Z,51.93
2022-11-20T12:24:10.916Z,49.47
2022-11-20T12:27:14.763Z,52.75
2022-11-20T12:30:04.070Z,50.15
2022-11-20T12:32:33.773Z,47.67
2022-11-20T12:35:17.254Z,69.17
2022-11-20T12:37:53.327Z,57.45
2022-11-20T12:40:49.303Z,55.03
2022-11-20T12:43:48.401Z,50.22
2022-11-20T12:46:33.426Z,51.65
2022-11-20T12:49:02.748Z,51.10
2022-11-20T12:52:00.522Z,56.72
2022-11-20T12:55:15.571Z,53.90
2022-11-20T12:57:44.932Z,55.72
2022-11-20T13:00:17.887Z,49.95
2022-11-20T13:03:06.291Z,55.50
2022-11-20T13:05:51.196Z,59.55
2022-11-20T13:08:59.587Z,57.95
2022-11-20T13:11:41.287Z,60.97
2022-11-20T13:14:26.490Z,63.25
2022-11-20T13:17:06.376Z,62.37
2022-11-20T13:19:34.029Z,66.30
2022-11-20T13:22:01.084Z,57.25
2022-11-20T13:24:31.832Z,64.38
2022-11-20T13:27:13.380Z,65.80
2022-11-20T13:29:44.565Z,66.40
2022-11-20T13:32:20.948Z,70.15
2022-11-20T13:35:05.435Z,64.45
2022-11-20T13:37:38.245Z,72.03
2022-11-20T13:40:11.492Z,69.63
2022-11-20T13:42:46.498Z,70.17
2022-11-20T13:45:31.397Z,64.72
2022-11-20T13:48:01.195Z,68.65
2022-11-20T13:50:36.846Z,66.05
2022-11-20T13:53:26.969Z,71.88
2022-11-20T13:56:28.156Z,71.80
2022-11-20T13:58:54.613Z,63.00
2022-11-20T14:01:26.640Z,73.13
2022-11-20T14:04:09.869Z,74.18
2022-11-20T14:06:49.724Z,71.60
2022-11-20T14:09:27.682Z,70.43
2022-11-20T14:11:54.333Z,75.93
2022-11-20T14:14:24.026Z,79.65
2022-11-20T14:16:51.551Z,79.35
2022-11-20T14:19:20.992Z,82.57
2022-11-20T14:21:48.809Z,81.17
2022-11-20T14:24:20.619Z,78.40
2022-11-20T14:26:48.496Z,86.03
2022-11-20T14:29:20.811Z,82.90
2022-11-20T14:31:54.120Z,89.10
2022-11-20T14:34:29.988Z,80.53
2022-11-20T14:37:01.992Z,87.78
2022-11-20T14:39:42.770Z,81.15
2022-11-20T14:42:21.581Z,84.90
2022-11-20T14:44:49.710Z,86.57
2022-11-20T14:47:27.518Z,91.37
2022-11-20T14:49:56.555Z,91.32
2022-11-20T14:52:28.319Z,73.55
2022-11-20T14:54:57.614Z,90.57
2022-11-20T14:57:38.988Z,94.18
2022-11-20T15:00:24.427Z,87.30
2022-11-20T15:02:54.112Z,88.88
2022-11-20T15:05:23.873Z,86.33
2022-11-20T15:08:09.396Z,88.95
2022-11-20T15:10:36.293Z,88.75
2022-11-20T15:13:13.201Z,88.78
2022-11-20T15:15:45.612Z,86.88
2022-11-20T15:18:14.897Z,91.40
2022-11-20T15:20:42.555Z,91.67
2022-11-20T15:23:14.215Z,86.70
2022-11-20T15:25:43.388Z,85.35
2022-11-20T15:28:35.288Z,86.55
2022-11-20T15:31:03.387Z,81.93
2022-11-20T15:33:31.021Z,91.03
2022-11-20T15:35:58.060Z,86.30
2022-11-20T15:38:24.698Z,85.47
2022-11-20T15:40:51.254Z,77.95
2022-11-20T15:43:17.785Z,81.18
2022-11-20T15:45:50.561Z,87.00
2022-11-20T15:48:30.110Z,86.90
2022-11-20T15:51:08.654Z,95.53
2022-11-20T15:53:35.218Z,77.47
2022-11-20T15:56:02.421Z,84.77
2022-11-20T15:58:28.971Z,81.40
2022-11-20T16:00:55.799Z,86.88
2022-11-20T16:03:22.469Z,85.68
2022-11-20T16:05:49.122Z,90.30
2022-11-20T16:08:15.808Z,93.00
2022-11-20T16:10:42.488Z,96.80
2022-11-20T16:13:36.554Z,90.47
2022-11-20T16:16:10.051Z,93.35
2022-11-20T16:18:36.665Z,90.57
2022-11-20T16:21:03.527Z,89.10
2022-11-20T16:23:30.239Z,86.68
2022-11-20T16:25:57.100Z,85.57
2022-11-20T16:28:23.766Z,80.38
2022-11-20T16:30:50.290Z,94.07
2022-11-20T16:33:18.439Z,97.73
2022-11-20T16:35:45.045Z,89.57
2022-11-20T16:38:11.622Z,96.78
2022-11-20T16:40:38.187Z,90.55
2022-11-20T16:43:10.636Z,92.82
2022-11-20T16:45:45.382Z,89.47
2022-11-20T16:48:16.946Z,89.78
2022-11-20T16:50:53.788Z,89.70
2022-11-20T16:53:21.971Z,88.80
2022-11-20T16:55:48.889Z,88.47
2022-11-20T16:58:15.829Z,79.63
2022-11-20T17:00:46.891Z,80.43
2022-11-20T17:03:18.020Z,74.70
2022-11-20T17:05:44.538Z,74.90
2022-11-20T17:08:11.048Z,68.57
2022-11-20T17:10:37.670Z,67.73
2022-11-20T17:13:04.225Z,66.63
2022-11-20T17:15:31.450Z,71.82
2022-11-20T17:17:58.026Z,61.92
2022-11-20T17:20:24.560Z,61.80
2022-11-20T17:22:51.080Z,60.07
2022-11-20T17:25:17.672Z,56.22
2022-11-20T17:27:44.232Z,72.03
2022-11-20T17:30:10.898Z,72.55
2022-11-20T17:32:37.529Z,63.28
2022-11-20T17:35:05.187Z,61.33
2022-11-20T17:37:31.742Z,60.10
2022-11-20T17:39:58.360Z,62.50
2022-11-20T17:42:27.822Z,65.20
2022-11-20T17:44:54.431Z,62.72
2022-11-20T17:47:20.967Z,72.77
2022-11-20T17:49:47.457Z,55.25
2022-11-20T17:52:13.959Z,65.80
2022-11-20T17:54:40.470Z,65.32
2022-11-20T17:57:27.206Z,57.05
2022-11-20T17:59:53.847Z,56.87
2022-11-20T18:02:20.403Z,54.22
2022-11-20T18:04:46.922Z,63.65
2022-11-20T18:07:13.590Z,61.47
2022-11-20T18:09:40.393Z,58.28
2022-11-20T18:12:07.109Z,57.23
2022-11-20T18:14:34.685Z,67.50
2022-11-20T18:17:04.413Z,54.03
2022-11-20T18:20:21.365Z,61.20
2022-11-20T18:22:38.189Z,60.50
2022-11-20T18:25:05.280Z,57.17
2022-11-20T18:27:31.904Z,52.35
2022-11-20T18:29:58.447Z,57.35
2022-11-20T18:32:25.043Z,53.25
2022-11-20T18:34:51.623Z,48.22
2022-11-20T18:37:18.306Z,49.67
2022-11-20T18:39:45.026Z,51.00
2022-11-20T18:42:35.289Z,48.38
2022-11-20T18:45:04.513Z,50.42
2022-11-20T18:47:34.122Z,50.13
2022-11-20T18:50:01.903Z,59.50
2022-11-20T18:52:34.173Z,85.43
2022-11-20T18:55:05.565Z,52.95
2022-11-20T18:57:32.773Z,53.08
2022-11-20T19:00:08.327Z,51.38
2022-11-20T19:02:41.044Z,52.63
2022-11-20T19:05:10.582Z,53.28
2022-11-20T19:07:37.146Z,47.60
2022-11-20T19:10:04.603Z,50.80
2022-11-20T19:12:31.498Z,49.95
2022-11-20T19:14:58.146Z,49.10
2022-11-20T19:17:24.696Z,46.97
2022-11-20T19:19:55.296Z,52.90
2022-11-20T19:22:22.190Z,48.60
2022-11-20T19:24:49.281Z,49.97
2022-11-20T19:27:15.834Z,43.23
2022-11-20T19:29:42.473Z,47.60
2022-11-20T19:32:09.069Z,41.30
2022-11-20T19:34:35.596Z,43.50
2022-11-20T19:37:02.339Z,49.60
2022-11-20T19:39:28.937Z,48.13
2022-11-20T19:41:55.668Z,49.05
2022-11-20T19:44:22.479Z,45.85
2022-11-20T19:46:50.864Z,46.42
2022-11-20T19:49:17.472Z,47.20
2022-11-20T19:51:46.997Z,50.07
2022-11-20T19:54:14.334Z,46.10
2022-11-20T19:56:41.341Z,44.05
2022-11-20T19:59:07.919Z,43.25
2022-11-20T20:01:35.388Z,44.45
2022-11-20T20:04:03.662Z,41.23
2022-11-20T20:06:31.411Z,43.88
2022-11-20T20:09:07.293Z,42.20
2022-11-20T20:11:34.884Z,42.92
2022-11-20T20:14:06.474Z,42.53
2022-11-20T20:16:34.394Z,45.30
2022-11-20T20:19:02.792Z,44.40
2022-11-20T20:21:30.627Z,51.63
2022-11-20T20:23:58.413Z,50.50
2022-11-20T20:26:27.027Z,49.65
2022-11-20T20:28:54.149Z,53.10
2022-11-20T20:31:24.885Z,48.17
2022-11-20T20:33:51.705Z,54.13
2022-11-20T20:36:20.241Z,52.15
2022-11-20T20:38:47.214Z,53.47
2022-11-20T20:41:14.840Z,50.97
2022-11-20T20:44:00.238Z,50.15
2022-11-20T20:46:26.901Z,50.05
2022-11-20T20:49:12.287Z,45.40
2022-11-20T20:51:38.836Z,48.13
2022-11-20T20:54:05.467Z,52.65
2022-11-20T20:56:33.166Z,55.67
2022-11-20T20:58:59.640Z,53.83
2022-11-20T21:01:28.803Z,51.22
2022-11-20T21:03:56.725Z,52.67
2022-11-20T21:06:23.496Z,54.85
2022-11-20T21:08:50.626Z,57.40
2022-11-20T21:11:19.237Z,50.90
2022-11-20T21:13:47.775Z,54.03
2022-11-20T21:16:15.817Z,54.50
2022-11-20T21:18:42.677Z,59.35
2022-11-20T21:21:31.825Z,56.17
2022-11-20T21:23:58.426Z,57.55
2022-11-20T21:26:25.125Z,52.10
2022-11-20T21:28:51.934Z,53.75
2022-11-20T21:31:25.086Z,55.53
2022-11-20T21:33:53.781Z,54.73
2022-11-20T21:36:22.372Z,52.80
2022-11-20T21:38:51.638Z,47.70
2022-11-20T21:41:18.238Z,54.38
2022-11-20T21:43:44.857Z,50.45
2022-11-20T21:46:14.110Z,50.40
2022-11-20T21:48:42.674Z,49.35
2022-11-20T21:51:17.591Z,51.40
2022-11-20T21:53:45.795Z,48.38
2022-11-20T21:56:18.980Z,49.60
2022-11-20T21:58:47.149Z,52.37
2022-11-20T22:01:26.736Z,51.50
2022-11-20T22:03:58.563Z,55.08
2022-11-20T22:06:27.063Z,59.63
2022-11-20T22:08:53.643Z,64.95
2022-11-20T22:11:21.439Z,57.53
2022-11-20T22:14:07.180Z,60.33
2022-11-20T22:16:35.383Z,62.60
2022-11-20T22:19:01.939Z,63.30
2022-11-20T22:21:30.585Z,52.53
2022-11-20T22:23:57.970Z,62.20
2022-11-20T22:26:27.348Z,63.70
2022-11-20T22:28:56.126Z,58.80
2022-11-20T22:31:27.887Z,61.33
2022-11-20T22:33:54.685Z,61.13
2022-11-20T22:36:23.792Z,57.57
2022-11-20T22:38:51.107Z,57.88
2022-11-20T22:41:27.458Z,54.65
2022-11-20T22:44:03.296Z,50.28
2022-11-20T22:46:33.103Z,51.95
2022-11-20T22:49:02.250Z,53.73
2022-11-20T22:51:31.973Z,49.92
2022-11-20T22:53:58.970Z,53.53
2022-11-20T22:56:25.634Z,51.53
2022-11-20T22:58:53.833Z,50.35
